createdAt,value
2022-09-06T00:01:25.756Z,100175.47
2022-09-06T00:03:52.642Z,100188.97
2022-09-06T00:06:20.704Z,100187.56
2022-09-06T00:08:49.389Z,100187.56
2022-09-06T00:11:18.128Z,100188.28
2022-09-06T00:13:45.652Z,100191.06
2022-09-06T00:16:18.199Z,100193.69
2022-09-06T00:18:45.892Z,100193.38
2022-09-06T00:21:26.966Z,100198.66
2022-09-06T00:23:54.285Z,100203.50
2022-09-06T00:26:23.064Z,100189.69
2022-09-06T00:28:50.352Z,100194.53
2022-09-06T00:31:23.443Z,100180.06
2022-09-06T00:33:51.507Z,100182.16
2022-09-06T00:36:19.044Z,100171.34
2022-09-06T00:38:45.946Z,100158.13
2022-09-06T00:41:14.885Z,100170.53
2022-09-06T00:43:42.896Z,100153.56
2022-09-06T00:46:15.407Z,100162.84
2022-09-06T00:48:44.231Z,100174.97
2022-09-06T00:51:12.836Z,100175.50
2022-09-06T00:53:39.656Z,100190.75
2022-09-06T00:56:06.728Z,100170.97
2022-09-06T00:58:34.272Z,100193.78
2022-09-06T01:01:01.534Z,100197.41
2022-09-06T01:03:28.710Z,100197.13
2022-09-06T01:06:24.774Z,100180.19
2022-09-06T01:09:01.176Z,100184.41
2022-09-06T01:12:25.077Z,100187.75
2022-09-06T01:15:15.380Z,100199.16
2022-09-06T01:17:48.567Z,100196.66
2022-09-06T01:20:49.317Z,100193.72
2022-09-06T01:23:18.880Z,100190.53
2022-09-06T01:26:00.062Z,100188.00
2022-09-06T01:28:45.393Z,100181.78
2022-09-06T01:31:24.776Z,100181.66
2022-09-06T01:34:24.760Z,100181.53
2022-09-06T01:37:10.834Z,100172.47
2022-09-06T01:39:40.098Z,100178.56
2022-09-06T01:42:18.826Z,100182.03
2022-09-06T01:44:55.031Z,100184.41
2022-09-06T01:47:33.314Z,100187.88
2022-09-06T01:50:18.410Z,100183.72
2022-09-06T01:52:57.598Z,100183.97
2022-09-06T01:55:48.460Z,100183.16
2022-09-06T01:58:21.016Z,100182.03
2022-09-06T02:01:01.124Z,100175.81
2022-09-06T02:04:18.330Z,100184.03
2022-09-06T02:06:57.839Z,100190.00
2022-09-06T02:09:28.866Z,100182.38
2022-09-06T02:11:59.076Z,100169.63
2022-09-06T02:14:33.246Z,100176.28
2022-09-06T02:17:03.173Z,100166.72
2022-09-06T02:19:39.969Z,100167.69
2022-09-06T02:22:11.603Z,100159.75
2022-09-06T02:24:40.932Z,100146.00
2022-09-06T02:27:08.652Z,100156.81
2022-09-06T02:29:35.905Z,100154.31
2022-09-06T02:32:25.126Z,100172.97
2022-09-06T02:34:54.738Z,100165.03
2022-09-06T02:37:26.191Z,100169.06
2022-09-06T02:39:56.216Z,100159.31
2022-09-06T02:42:24.583Z,100145.72
2022-09-06T02:44:51.344Z,100150.19
2022-09-06T02:47:18.515Z,100153.94
2022-09-06T02:49:45.416Z,100159.22
2022-09-06T02:52:12.224Z,100156.72
2022-09-06T02:54:39.074Z,100161.56
2022-09-06T02:57:05.948Z,100150.44
2022-09-06T02:59:32.741Z,100156.72
2022-09-06T03:02:00.337Z,100145.31
2022-09-06T03:04:27.208Z,100153.34
2022-09-06T03:06:53.977Z,100147.81
2022-09-06T03:09:20.778Z,100151.44
2022-09-06T03:11:47.678Z,100141.69
2022-09-06T03:14:17.101Z,100152.25
2022-09-06T03:16:43.904Z,100133.09
2022-09-06T03:19:10.786Z,100140.88
2022-09-06T03:21:37.542Z,100138.38
2022-09-06T03:24:07.448Z,100153.66
2022-09-06T03:26:34.251Z,100143.75
2022-09-06T03:29:01.016Z,100145.94
2022-09-06T03:31:27.762Z,100149.72
2022-09-06T03:33:54.538Z,100138.84
2022-09-06T03:36:21.284Z,100154.13
2022-09-06T03:38:48.182Z,100155.13
2022-09-06T03:41:14.912Z,100157.59
2022-09-06T03:43:41.662Z,100159.78
2022-09-06T03:46:08.661Z,100149.22
2022-09-06T03:48:35.669Z,100150.41
2022-09-06T03:51:02.512Z,100152.63
2022-09-06T03:53:29.772Z,100142.25
2022-09-06T03:55:58.338Z,100150.22
2022-09-06T03:58:30.039Z,100147.81
2022-09-06T04:01:08.990Z,100156.88
2022-09-06T04:03:36.996Z,100151.66
2022-09-06T04:06:05.248Z,100134.09
2022-09-06T04:08:32.961Z,100153.09
2022-09-06T04:11:00.511Z,100147.81
2022-09-06T04:13:29.275Z,100129.53
2022-09-06T04:15:56.101Z,100132.63
2022-09-06T04:18:23.643Z,100128.47
2022-09-06T04:20:52.355Z,100137.38
2022-09-06T04:23:20.043Z,100135.19
2022-09-06T04:25:51.518Z,100128.56
2022-09-06T04:28:19.062Z,100131.50
2022-09-06T04:30:51.794Z,100135.56
2022-09-06T04:33:18.610Z,100132.66
2022-09-06T04:35:50.334Z,100131.00
2022-09-06T04:38:17.194Z,100141.41
2022-09-06T04:40:43.973Z,100145.84
2022-09-06T04:43:10.779Z,100145.84
2022-09-06T04:45:37.882Z,100140.56
2022-09-06T04:48:05.204Z,100122.78
2022-09-06T04:50:32.016Z,100135.28
2022-09-06T04:52:58.759Z,100140.56
2022-09-06T04:55:26.674Z,100144.19
2022-09-06T04:57:54.427Z,100145.03
2022-09-06T05:00:21.330Z,100141.81
2022-09-06T05:02:48.704Z,100139.88
2022-09-06T05:05:15.588Z,100139.88
2022-09-06T05:07:42.309Z,100140.97
2022-09-06T05:10:09.378Z,100138.84
2022-09-06T05:12:38.808Z,100145.16
2022-09-06T05:15:08.453Z,100137.50
2022-09-06T05:17:35.258Z,100139.44
2022-09-06T05:20:02.203Z,100139.19
2022-09-06T05:22:28.976Z,100131.66
2022-09-06T05:24:55.722Z,100130.00
2022-09-06T05:27:22.544Z,100124.13
2022-09-06T05:29:49.337Z,100131.59
2022-09-06T05:32:16.066Z,100147.09
2022-09-06T05:34:43.017Z,100146.78
2022-09-06T05:37:09.749Z,100159.28
2022-09-06T05:39:36.673Z,100157.72
2022-09-06T05:42:07.029Z,100151.16
2022-09-06T05:44:35.492Z,100160.25
2022-09-06T05:47:02.345Z,100149.13
2022-09-06T05:49:30.623Z,100162.19
2022-09-06T05:51:57.892Z,100165.81
2022-09-06T05:54:25.432Z,100170.22
2022-09-06T05:56:52.246Z,100172.75
2022-09-06T05:59:19.031Z,100170.81
2022-09-06T06:01:53.379Z,100176.53
2022-09-06T06:04:21.116Z,100165.03
2022-09-06T06:06:49.135Z,100164.09
2022-09-06T06:09:17.056Z,100166.56
2022-09-06T06:11:44.000Z,100168.38
2022-09-06T06:14:11.098Z,100165.38
2022-09-06T06:16:38.329Z,100176.25
2022-09-06T06:19:05.635Z,100168.91
2022-09-06T06:21:33.722Z,100169.22
2022-09-06T06:24:05.088Z,100170.63
2022-09-06T06:26:33.206Z,100178.28
2022-09-06T06:29:02.199Z,100176.63
2022-09-06T06:31:30.998Z,100174.66
2022-09-06T06:33:58.560Z,100179.69
2022-09-06T06:36:27.322Z,100183.03
2022-09-06T06:38:55.480Z,100172.47
2022-09-06T06:41:25.364Z,100177.75
2022-09-06T06:43:53.535Z,100170.72
2022-09-06T06:46:21.854Z,100170.84
2022-09-06T06:48:52.766Z,100167.22
2022-09-06T06:51:24.016Z,100174.41
2022-09-06T06:53:51.739Z,100163.03
2022-09-06T06:56:18.474Z,100161.47
2022-09-06T06:58:48.943Z,100162.47
2022-09-06T07:01:21.264Z,100160.53
2022-09-06T07:03:48.794Z,100153.44
2022-09-06T07:06:17.117Z,100157.50
2022-09-06T07:08:44.372Z,100151.38
2022-09-06T07:11:13.039Z,100163.84
2022-09-06T07:13:40.017Z,100164.28
2022-09-06T07:16:08.158Z,100159.00
2022-09-06T07:18:35.323Z,100162.09
2022-09-06T07:26:31.799Z,100161.66
2022-09-06T07:29:01.357Z,100162.97
2022-09-06T07:34:17.798Z,100170.56
2022-09-06T07:36:44.627Z,100169.16
2022-09-06T07:39:11.362Z,100165.94
2022-09-06T07:41:38.136Z,100164.28
2022-09-06T07:44:05.069Z,100156.19
2022-09-06T07:46:31.935Z,100166.94
2022-09-06T07:48:58.820Z,100174.97
2022-09-06T07:51:25.644Z,100166.56
2022-09-06T07:54:12.968Z,100171.34
2022-09-06T07:56:42.484Z,100174.41
2022-09-06T07:59:09.475Z,100171.47
2022-09-06T08:01:38.218Z,100175.28
2022-09-06T08:04:15.353Z,100172.28
2022-09-06T08:09:35.607Z,100167.53
2022-09-06T08:12:09.419Z,100169.19
2022-09-06T08:14:36.555Z,100168.22
2022-09-06T08:17:04.398Z,100178.06
2022-09-06T08:19:31.266Z,100179.44
2022-09-06T08:21:58.104Z,100172.91
2022-09-06T08:24:24.876Z,100175.41
2022-09-06T08:26:51.884Z,100156.19
2022-09-06T08:29:20.140Z,100160.47
2022-09-06T08:31:47.583Z,100152.53
2022-09-06T08:34:15.353Z,100141.69
2022-09-06T08:36:42.845Z,100145.59
2022-09-06T08:39:10.669Z,100153.81
2022-09-06T08:41:55.394Z,100153.00
2022-09-06T08:47:17.460Z,100154.97
2022-09-06T08:49:48.594Z,100156.41
2022-09-06T08:52:18.244Z,100146.22
2022-09-06T08:54:51.167Z,100149.09
2022-09-06T08:57:43.622Z,100155.66
2022-09-06T09:00:12.767Z,100142.88
2022-09-06T09:02:59.688Z,100146.97
2022-09-06T09:05:31.284Z,100145.75
2022-09-06T09:08:19.549Z,100150.69
2022-09-06T09:10:54.616Z,100156.56
2022-09-06T09:13:40.100Z,100157.94
2022-09-06T09:16:07.739Z,100155.16
2022-09-06T09:18:38.815Z,100159.88
2022-09-06T09:21:06.274Z,100141.91
2022-09-06T09:23:33.096Z,100154.59
2022-09-06T09:26:06.406Z,100156.94
2022-09-06T09:28:33.239Z,100174.88
2022-09-06T09:31:00.111Z,100169.16
2022-09-06T09:33:29.951Z,100166.19
2022-09-06T09:35:59.865Z,100160.34
2022-09-06T09:38:31.596Z,100169.28
2022-09-06T09:41:05.639Z,100167.06
2022-09-06T09:43:37.068Z,100167.38
2022-09-06T09:46:22.434Z,100169.31
2022-09-06T09:49:11.206Z,100169.63
2022-09-06T09:51:44.517Z,100166.06
2022-09-06T09:54:14.355Z,100171.28
2022-09-06T09:56:53.651Z,100169.41
2022-09-06T09:59:34.308Z,100176.75
2022-09-06T10:02:15.763Z,100170.91
2022-09-06T10:04:47.141Z,100170.59
2022-09-06T10:07:25.764Z,100169.50
2022-09-06T10:10:12.953Z,100166.38
2022-09-06T10:12:42.101Z,100163.59
2022-09-06T10:15:12.021Z,100173.13
2022-09-06T10:17:51.909Z,100163.19
2022-09-06T10:20:19.268Z,100157.59
2022-09-06T10:23:05.498Z,100148.47
2022-09-06T10:25:39.810Z,100161.38
2022-09-06T10:28:31.749Z,100162.25
2022-09-06T10:30:58.492Z,100165.22
2022-09-06T10:34:03.727Z,100162.53
2022-09-06T10:36:37.561Z,100160.78
2022-09-06T10:39:12.838Z,100155.88
2022-09-06T10:42:10.925Z,100157.97
2022-09-06T10:44:50.095Z,100170.09
2022-09-06T10:47:18.278Z,100170.38
2022-09-06T10:49:50.954Z,100169.00
2022-09-06T10:52:27.214Z,100174.31
2022-09-06T10:55:02.293Z,100162.56
2022-09-06T11:00:28.101Z,100167.44
2022-09-06T11:06:12.862Z,100155.34
2022-09-06T11:09:09.900Z,100157.75
2022-09-06T11:11:44.533Z,100155.97
2022-09-06T11:14:14.381Z,100148.75
2022-09-06T11:16:57.899Z,100155.78
2022-09-06T11:19:34.901Z,100156.25
2022-09-06T11:22:23.915Z,100147.00
2022-09-06T11:25:08.885Z,100153.28
2022-09-06T11:27:40.423Z,100156.03
2022-09-06T11:30:13.807Z,100146.19
2022-09-06T11:32:40.574Z,100159.09
2022-09-06T11:35:11.269Z,100157.50
2022-09-06T11:37:43.248Z,100149.63
2022-09-06T11:40:31.196Z,100149.91
2022-09-06T11:42:59.604Z,100153.63
2022-09-06T11:45:47.869Z,100151.06
2022-09-06T11:48:26.773Z,100151.81
2022-09-06T11:50:53.560Z,100149.38
2022-09-06T11:53:21.928Z,100141.66
2022-09-06T11:55:52.763Z,100155.88
2022-09-06T11:58:22.639Z,100146.94
2022-09-06T12:01:28.140Z,100130.28
2022-09-06T12:04:06.513Z,100149.84
2022-09-06T12:06:40.995Z,100146.50
2022-09-06T12:09:46.435Z,100136.56
2022-09-06T12:12:39.986Z,100144.13
2022-09-06T12:15:28.471Z,100127.81
2022-09-06T12:17:56.081Z,100128.94
2022-09-06T12:20:55.019Z,100129.31
2022-09-06T12:23:42.860Z,100136.84
2022-09-06T12:26:11.716Z,100133.97
2022-09-06T12:28:51.510Z,100137.16
2022-09-06T12:31:33.196Z,100123.91
2022-09-06T12:34:11.660Z,100128.41
2022-09-06T12:36:55.348Z,100127.47
2022-09-06T12:39:22.469Z,100132.63
2022-09-06T12:42:11.342Z,100127.56
2022-09-06T12:44:45.186Z,100140.50
2022-09-06T12:47:17.874Z,100132.25
2022-09-06T12:49:44.859Z,100146.19
2022-09-06T12:52:14.885Z,100147.25
2022-09-06T12:54:48.835Z,100144.84
2022-09-06T12:57:26.546Z,100135.00
2022-09-06T12:59:57.768Z,100131.50
2022-09-06T13:02:24.497Z,100133.56
2022-09-06T13:04:56.223Z,100126.34
2022-09-06T13:07:24.478Z,100121.31
2022-09-06T13:09:55.673Z,100110.72
2022-09-06T13:12:33.675Z,100111.31
2022-09-06T13:15:25.187Z,100119.41
2022-09-06T13:17:52.378Z,100122.22
2022-09-06T13:20:30.189Z,100119.88
2022-09-06T13:23:13.198Z,100124.84
2022-09-06T13:25:51.731Z,100118.78
2022-09-06T13:28:33.181Z,100116.34
2022-09-06T13:31:04.579Z,100128.31
2022-09-06T13:33:32.970Z,100118.84
2022-09-06T13:36:11.875Z,100092.41
2022-09-06T13:38:40.821Z,100110.66
2022-09-06T13:41:30.407Z,100121.75
2022-09-06T13:44:01.259Z,100110.22
2022-09-06T13:46:28.052Z,100113.81
2022-09-06T13:48:56.021Z,100110.94
2022-09-06T13:51:23.595Z,100119.03
2022-09-06T13:53:51.137Z,100109.09
2022-09-06T13:56:18.055Z,100106.44
2022-09-06T13:58:45.320Z,100112.78
2022-09-06T14:01:14.455Z,100109.16
2022-09-06T14:03:42.406Z,100102.88
2022-09-06T14:06:10.338Z,100103.00
2022-09-06T14:08:56.109Z,100105.94
2022-09-06T14:11:25.578Z,100093.63
2022-09-06T14:13:52.579Z,100081.56
2022-09-06T14:16:19.427Z,100095.66
2022-09-06T14:18:46.446Z,100089.28
2022-09-06T14:21:13.362Z,100092.63
2022-09-06T14:23:40.377Z,100086.72
2022-09-06T14:26:07.355Z,100081.81
2022-09-06T14:28:34.370Z,100076.31
2022-09-06T14:31:15.931Z,100080.78
2022-09-06T14:33:43.053Z,100070.50
2022-09-06T14:36:21.225Z,100059.38
2022-09-06T14:38:48.918Z,100070.56
2022-09-06T14:41:17.948Z,100041.88
2022-09-06T14:43:48.691Z,100066.78
2022-09-06T14:46:18.393Z,100055.09
2022-09-06T14:48:45.750Z,100072.56
2022-09-06T14:51:25.053Z,100076.91
2022-09-06T14:53:54.531Z,100061.78
2022-09-06T14:56:23.075Z,100063.47
2022-09-06T14:58:50.176Z,100071.75
2022-09-06T15:01:23.185Z,100071.91
2022-09-06T15:03:52.744Z,100063.41
2022-09-06T15:06:21.811Z,100059.22
2022-09-06T15:08:49.806Z,100052.53
2022-09-06T15:11:30.295Z,100054.59
2022-09-06T15:13:58.146Z,100060.88
2022-09-06T15:16:24.960Z,100058.03
2022-09-06T15:18:51.983Z,100054.25
2022-09-06T15:21:18.839Z,100066.03
2022-09-06T15:23:45.771Z,100069.22
2022-09-06T15:26:14.778Z,100057.41
2022-09-06T15:28:46.150Z,100067.47
2022-09-06T15:31:14.214Z,100074.88
2022-09-06T15:33:41.544Z,100084.75
2022-09-06T15:36:10.278Z,100087.34
2022-09-06T15:38:41.361Z,100091.88
2022-09-06T15:41:25.668Z,100080.88
2022-09-06T15:44:00.995Z,100069.56
2022-09-06T15:46:38.554Z,100060.56
2022-09-06T15:49:10.572Z,100059.91
2022-09-06T15:51:39.012Z,100053.81
2022-09-06T15:54:06.844Z,100048.69
2022-09-06T15:56:33.616Z,100052.31
2022-09-06T15:59:00.549Z,100055.13
2022-09-06T16:01:27.637Z,100052.56
2022-09-06T16:04:03.719Z,100053.41
2022-09-06T16:06:36.626Z,100058.97
2022-09-06T16:09:09.301Z,100050.94
2022-09-06T16:11:37.283Z,100046.50
2022-09-06T16:14:05.832Z,100049.28
2022-09-06T16:16:35.102Z,100059.25
2022-09-06T16:19:02.019Z,100057.88
2022-09-06T16:21:32.372Z,100069.41
2022-09-06T16:24:01.633Z,100060.28
2022-09-06T16:26:34.645Z,100060.22
2022-09-06T16:29:02.428Z,100047.75
2022-09-06T16:31:29.844Z,100042.44
2022-09-06T16:33:58.052Z,100033.56
2022-09-06T16:36:26.582Z,100030.22
2022-09-06T16:38:53.830Z,100034.66
2022-09-06T16:41:40.811Z,100038.28
2022-09-06T16:44:09.769Z,100014.38
2022-09-06T16:46:36.726Z,100029.94
2022-09-06T16:49:04.675Z,100032.88
2022-09-06T16:51:31.539Z,100035.63
2022-09-06T16:53:59.567Z,100035.41
2022-09-06T16:56:31.869Z,100028.41
2022-09-06T16:59:00.891Z,100034.19
2022-09-06T17:01:29.804Z,100033.28
2022-09-06T17:03:57.678Z,100021.50
2022-09-06T17:06:25.225Z,100022.97
2022-09-06T17:08:52.286Z,100021.38
2022-09-06T17:11:21.679Z,100019.28
2022-09-06T17:13:50.571Z,100021.91
2022-09-06T17:16:37.593Z,100017.78
2022-09-06T17:19:05.937Z,100020.03
2022-09-06T17:21:33.662Z,100025.91
2022-09-06T17:24:09.244Z,100015.66
2022-09-06T17:26:37.657Z,100016.28
2022-09-06T17:29:04.805Z,100006.19
2022-09-06T17:31:31.750Z,100002.38
2022-09-06T17:33:59.865Z,100004.34
2022-09-06T17:36:32.060Z,100009.03
2022-09-06T17:39:23.576Z,100012.50
2022-09-06T17:41:51.391Z,100005.44
2022-09-06T17:44:21.125Z,100014.06
2022-09-06T17:47:09.221Z,100021.75
2022-09-06T17:49:35.808Z,100011.03
2022-09-06T17:52:02.829Z,100013.53
2022-09-06T17:54:31.860Z,100019.94
2022-09-06T17:56:58.808Z,100022.03
2022-09-06T17:59:25.568Z,100018.69
2022-09-06T18:01:52.678Z,100023.13
2022-09-06T18:04:19.625Z,100013.41
2022-09-06T18:06:47.658Z,100018.81
2022-09-06T18:09:17.810Z,100014.25
2022-09-06T18:11:46.881Z,100015.22
2022-09-06T18:14:16.931Z,100004.91
2022-09-06T18:16:47.466Z,100015.06
2022-09-06T18:19:15.640Z,100010.19
2022-09-06T18:21:42.960Z,100017.72
2022-09-06T18:24:10.892Z,100009.06
2022-09-06T18:26:37.775Z,100006.00
2022-09-06T18:29:08.229Z,100004.34
2022-09-06T18:31:35.113Z,100015.19
2022-09-06T18:34:01.959Z,100013.25
2022-09-06T18:36:32.261Z,100010.44
2022-09-06T18:39:04.781Z,100003.78
2022-09-06T18:41:51.697Z,100013.53
2022-09-06T18:44:18.829Z,100011.03
2022-09-06T18:46:45.705Z,100017.44
2022-09-06T18:49:16.107Z,100012.00
2022-09-06T18:51:43.468Z,100011.19
2022-09-06T18:54:11.169Z,100009.94
2022-09-06T18:56:38.732Z,100017.72
2022-09-06T18:59:06.216Z,100008.66
2022-09-06T19:01:35.266Z,100013.69
2022-09-06T19:04:03.469Z,100003.78
2022-09-06T19:06:32.470Z,100016.84
2022-09-06T19:09:06.267Z,100013.66
2022-09-06T19:11:33.621Z,100007.41
2022-09-06T19:14:01.140Z,100007.91
2022-09-06T19:16:29.960Z,100006.53
2022-09-06T19:19:01.125Z,100009.69
2022-09-06T19:21:27.967Z,100003.66
2022-09-06T19:23:58.027Z,100002.78
2022-09-06T19:26:28.312Z,100007.78
2022-09-06T19:29:00.258Z,100012.75
2022-09-06T19:31:33.262Z,100015.91
2022-09-06T19:34:00.580Z,100008.09
2022-09-06T19:36:28.957Z,100019.72
2022-09-06T19:39:03.907Z,100020.72
2022-09-06T19:41:37.168Z,100016.78
2022-09-06T19:44:09.467Z,100015.50
2022-09-06T19:46:37.450Z,100007.66
2022-09-06T19:49:08.377Z,99998.03
2022-09-06T19:51:37.096Z,100005.22
2022-09-06T19:54:04.532Z,100004.78
2022-09-06T19:56:34.395Z,100008.25
2022-09-06T19:59:04.173Z,100003.84
2022-09-06T20:01:33.367Z,100012.44
2022-09-06T20:04:03.002Z,100008.00
2022-09-06T20:06:30.877Z,99999.97
2022-09-06T20:08:59.547Z,100006.91
2022-09-06T20:11:30.753Z,100000.53
2022-09-06T20:13:57.923Z,99995.72
2022-09-06T20:16:25.392Z,99997.00
2022-09-06T20:18:54.743Z,99991.72
2022-09-06T20:21:22.093Z,99994.22
2022-09-06T20:23:50.907Z,99992.44
2022-09-06T20:26:18.169Z,100001.75
2022-09-06T20:28:45.404Z,100003.84
2022-09-06T20:31:18.783Z,100002.63
2022-09-06T20:33:49.698Z,100004.03
2022-09-06T20:36:17.762Z,99994.06
2022-09-06T20:38:45.599Z,99994.78
2022-09-06T20:41:21.220Z,99995.38
2022-09-06T20:43:55.869Z,99977.88
2022-09-06T20:46:25.343Z,99986.59
2022-09-06T20:48:52.995Z,99991.34
2022-09-06T20:51:22.851Z,99981.75
2022-09-06T20:53:56.110Z,99981.75
2022-09-06T20:56:29.289Z,99972.78
2022-09-06T20:58:59.612Z,99967.50
2022-09-06T21:01:30.070Z,99976.94
2022-09-06T21:03:59.509Z,99974.16
2022-09-06T21:06:28.572Z,99969.16
2022-09-06T21:08:56.420Z,99976.78
2022-09-06T21:11:25.097Z,99974.84
2022-09-06T21:13:55.975Z,99980.81
2022-09-06T21:16:25.138Z,99974.84
2022-09-06T21:18:53.631Z,99975.28
2022-09-06T21:21:20.784Z,99975.28
2022-09-06T21:23:47.523Z,99970.00
2022-09-06T21:26:17.522Z,99971.69
2022-09-06T21:28:46.186Z,99962.97
2022-09-06T21:31:16.841Z,99972.53
2022-09-06T21:33:49.034Z,99976.00
2022-09-06T21:36:19.556Z,99963.78
2022-09-06T21:38:49.149Z,99963.78
2022-09-06T21:41:18.034Z,99966.28
2022-09-06T21:43:45.688Z,99961.97
2022-09-06T21:46:17.421Z,99954.19
2022-09-06T21:48:47.126Z,99954.31
2022-09-06T21:51:16.785Z,99950.88
2022-09-06T21:53:45.772Z,99949.19
2022-09-06T21:56:13.457Z,99941.56
2022-09-06T21:58:40.365Z,99939.88
2022-09-06T22:01:08.319Z,99942.53
2022-09-06T22:03:38.075Z,99940.88
2022-09-06T22:06:09.628Z,99942.78
2022-09-06T22:08:36.597Z,99931.41
2022-09-06T22:11:10.972Z,99934.75
2022-09-06T22:13:37.758Z,99935.84
2022-09-06T22:16:07.893Z,99927.94
2022-09-06T22:18:35.467Z,99928.09
2022-09-06T22:21:05.082Z,99926.41
2022-09-06T22:23:32.385Z,99930.03
2022-09-06T22:26:07.064Z,99920.56
2022-09-06T22:28:34.310Z,99921.25
2022-09-06T22:31:01.401Z,99917.22
2022-09-06T22:33:28.377Z,99918.06
2022-09-06T22:35:55.863Z,99914.16
2022-09-06T22:38:23.270Z,99917.22
2022-09-06T22:40:50.132Z,99920.81
2022-09-06T22:43:17.134Z,99915.56
2022-09-06T22:45:49.830Z,99920.00
2022-09-06T22:48:18.618Z,99919.16
2022-09-06T22:50:45.600Z,99917.50
2022-09-06T22:53:12.591Z,99910.81
2022-09-06T22:55:39.377Z,99911.53
2022-09-06T22:58:06.865Z,99912.22
2022-09-06T23:00:36.204Z,99906.25
2022-09-06T23:03:04.374Z,99912.91
2022-09-06T23:05:31.845Z,99912.09
2022-09-06T23:08:01.757Z,99907.94
2022-09-06T23:10:29.046Z,99900.84
2022-09-06T23:12:56.865Z,99909.72
2022-09-06T23:15:23.740Z,99904.44
2022-09-06T23:17:51.081Z,99912.34
2022-09-06T23:20:18.257Z,99903.63
2022-09-06T23:22:45.091Z,99902.78
2022-09-06T23:25:11.819Z,99904.56
2022-09-06T23:27:38.619Z,99906.50
2022-09-06T23:30:06.210Z,99895.97
2022-09-06T23:32:33.344Z,99899.47
2022-09-06T23:35:00.211Z,99891.69
2022-09-06T23:37:27.023Z,99894.72
2022-09-06T23:39:53.807Z,99891.94
2022-09-06T23:42:22.141Z,99891.13
2022-09-06T23:44:49.660Z,99883.34
2022-09-06T23:47:16.388Z,99886.81
2022-09-06T23:49:45.379Z,99886.09
2022-09-06T23:52:12.364Z,99878.34
2022-09-06T23:54:39.128Z,99877.50
2022-09-06T23:57:06.045Z,99868.06
2022-09-06T23:59:32.882Z,99874.03
